Time;durP1;ratioP1;P1;durP2;ratioP2;P2;SDS_P1;SDS_P2;PMS_P1;PMS_P2;Temp;Humidity;BMP_temperature;BMP_pressure;BME280_temperature;BME280_humidity;BME280_pressure;Samples;Min_cycle;Max_cycle;Signal;HPM_P1;HPM_P2
2023/01/30 00:01:05;;;;;;;19.90;12.73;;;;;;;-1.08;60.35;94072.41;4978576;28;20042;-78
2023/01/30 00:03:30;;;;;;;24.08;14.38;;;;;;;-0.97;59.81;94063.72;4950029;28;20042;-78
2023/01/30 00:05:56;;;;;;;22.85;12.77;;;;;;;-0.71;59.60;94082.41;4974161;28;20154;-78
2023/01/30 00:08:21;;;;;;;24.88;14.32;;;;;;;-0.83;58.98;94053.00;4975822;28;20495;-79
2023/01/30 00:10:48;;;;;;;24.33;13.57;;;;;;;-1.13;59.83;94011.50;4978876;28;20510;-77
2023/01/30 00:13:14;;;;;;;18.10;12.63;;;;;;;-0.87;59.90;94067.56;4979108;28;20447;-79
2023/01/30 00:15:40;;;;;;;23.90;13.88;;;;;;;-0.87;60.40;94062.31;4959456;28;20030;-79
2023/01/30 00:18:06;;;;;;;27.05;13.68;;;;;;;-1.10;60.74;94048.34;4976137;28;20537;-80
2023/01/30 00:20:31;;;;;;;27.48;13.20;;;;;;;-1.14;61.51;94068.13;4976745;28;20137;-78
2023/01/30 00:22:57;;;;;;;24.83;14.25;;;;;;;-1.15;60.88;94060.53;4978819;28;20034;-79
2023/01/30 00:25:24;;;;;;;22.63;14.05;;;;;;;-1.12;61.07;94071.28;4977981;28;20034;-78
2023/01/30 00:27:50;;;;;;;26.55;13.75;;;;;;;-1.20;60.88;94058.63;4977344;28;20112;-79
2023/01/30 00:30:15;;;;;;;24.48;13.30;;;;;;;-1.31;60.46;94053.47;4976852;28;20153;-79
2023/01/30 00:32:41;;;;;;;24.38;14.00;;;;;;;-1.30;60.42;94041.97;4978742;28;20084;-80
2023/01/30 00:35:06;;;;;;;23.42;13.68;;;;;;;-1.19;60.69;94078.47;4950701;28;20030;-79
2023/01/30 00:37:32;;;;;;;23.17;13.70;;;;;;;-1.58;60.33;94027.13;4960495;28;20041;-78
2023/01/30 00:39:57;;;;;;;22.98;13.60;;;;;;;-1.26;59.84;94064.75;4980608;28;20038;-78
2023/01/30 00:47:54;;;;;;;22.65;13.52;;;;;;;-1.36;59.28;94056.75;4982588;28;20115;-79
2023/01/30 00:50:19;;;;;;;17.60;11.10;;;;;;;-1.73;60.04;94005.97;4979120;28;20042;-79
2023/01/30 00:52:44;;;;;;;20.55;11.90;;;;;;;-1.39;60.04;94038.97;4980212;28;20533;-78
2023/01/30 00:55:10;;;;;;;21.73;12.68;;;;;;;-1.46;59.95;94033.09;4980506;28;20439;-79
2023/01/30 00:57:35;;;;;;;20.23;11.65;;;;;;;-1.30;59.44;94041.97;4980207;28;21085;-78
2023/01/30 01:00:01;;;;;;;20.20;12.57;;;;;;;-1.20;59.24;94022.06;4979352;28;20042;-78
2023/01/30 01:02:26;;;;;;;17.42;9.50;;;;;;;-1.24;58.61;94020.16;4979995;28;20046;-78
2023/01/30 01:04:51;;;;;;;23.65;12.15;;;;;;;-1.28;58.30;94026.88;4960638;28;20502;-78
2023/01/30 01:07:17;;;;;;;20.75;11.35;;;;;;;-1.33;58.71;94038.03;4981045;28;20485;-79
2023/01/30 01:09:42;;;;;;;18.90;11.05;;;;;;;-1.58;59.50;94042.78;4976401;28;20029;-79
2023/01/30 01:12:08;;;;;;;19.45;10.70;;;;;;;-1.52;60.06;94044.47;4978580;28;20104;-79
2023/01/30 01:14:34;;;;;;;21.58;12.70;;;;;;;-1.82;60.64;94018.59;4978195;28;20035;-79
2023/01/30 01:16:59;;;;;;;20.05;12.27;;;;;;;-1.60;60.53;94039.59;4978704;28;20038;-78
2023/01/30 01:19:24;;;;;;;18.80;11.98;;;;;;;-1.70;60.48;94005.53;4958893;28;20567;-79
2023/01/30 01:21:50;;;;;;;16.70;10.32;;;;;;;-1.73;60.80;94005.97;4961364;28;21082;-78
2023/01/30 01:24:16;;;;;;;20.38;11.77;;;;;;;-1.56;60.05;94017.25;4979639;28;20031;-80
2023/01/30 01:26:42;;;;;;;17.75;11.70;;;;;;;-1.36;59.75;94025.44;4977210;28;20443;-78
2023/01/30 01:29:15;;;;;;;17.77;11.48;;;;;;;-1.64;60.40;94015.81;4977560;28;20044;-78
2023/01/30 01:31:42;;;;;;;22.85;12.52;;;;;;;-1.41;60.47;94022.75;4976612;28;20112;-79
2023/01/30 01:34:07;;;;;;;18.92;11.90;;;;;;;-1.55;60.18;93997.97;4978632;28;20042;-78
2023/01/30 01:36:33;;;;;;;20.73;12.05;;;;;;;-1.47;59.93;94032.31;4976598;28;20534;-80
2023/01/30 01:38:58;;;;;;;21.70;11.80;;;;;;;-1.56;60.38;94022.47;4961233;28;20573;-78
2023/01/30 01:41:24;;;;;;;18.77;11.95;;;;;;;-1.74;60.84;94018.22;4978186;28;20293;-79
2023/01/30 01:44:07;;;;;;;20.35;13.25;;;;;;;-1.63;61.24;94014.78;4978592;28;20835;-79
2023/01/30 01:46:45;;;;;;;20.20;11.18;;;;;;;-2.15;61.77;93992.38;4958706;28;20031;-78
2023/01/30 01:49:25;;;;;;;20.95;12.27;;;;;;;-2.29;62.57;94007.47;4979522;28;20080;-78
2023/01/30 01:51:56;;;;;;;19.67;10.82;;;;;;;-2.08;62.78;94019.09;4951402;28;20064;-79
2023/01/30 01:54:33;;;;;;;17.00;10.65;;;;;;;-2.19;62.98;94005.06;4976999;28;20027;-78
2023/01/30 01:57:05;;;;;;;18.38;11.63;;;;;;;-2.26;63.28;94012.22;4974260;28;20044;-79
2023/01/30 01:59:35;;;;;;;20.02;12.98;;;;;;;-2.22;63.65;94002.91;4978956;28;20037;-79
2023/01/30 02:02:07;;;;;;;19.05;10.68;;;;;;;-2.13;63.30;94027.59;4950415;28;20058;-78
2023/01/30 02:07:21;;;;;;;21.05;12.95;;;;;;;-2.33;63.21;94006.31;4975778;28;20053;-78
2023/01/30 02:09:49;;;;;;;17.65;10.77;;;;;;;-2.19;62.90;94023.28;4976262;28;20026;-78
2023/01/30 02:12:14;;;;;;;19.30;10.63;;;;;;;-2.35;63.07;94003.19;4977797;28;20478;-77
2023/01/30 02:14:41;;;;;;;21.48;11.45;;;;;;;-2.18;63.21;94031.91;4975137;28;20486;-79
2023/01/30 02:17:06;;;;;;;20.27;11.80;;;;;;;-2.28;63.05;94004.63;4956343;28;21192;-79
2023/01/30 02:19:54;;;;;;;18.42;10.23;;;;;;;-2.12;62.82;94034.41;4976003;28;21263;-79
2023/01/30 02:22:38;;;;;;;20.15;10.10;;;;;;;-2.12;62.83;94031.00;4973698;28;20434;-79
2023/01/30 02:25:12;;;;;;;19.02;11.18;;;;;;;-1.94;61.79;94033.44;4977174;28;20114;-78
2023/01/30 02:28:01;;;;;;;19.75;10.63;;;;;;;-1.84;61.59;94028.44;4975609;28;20049;-78
2023/01/30 02:30:45;;;;;;;18.60;9.05;;;;;;;-1.83;60.73;94033.44;4976047;28;20088;-78
2023/01/30 02:33:10;;;;;;;14.25;9.35;;;;;;;-1.95;61.27;94027.44;4960272;28;20045;-81
2023/01/30 02:36:11;;;;;;;14.35;9.20;;;;;;;-1.97;61.23;94032.09;4974193;28;20488;-79
2023/01/30 02:38:45;;;;;;;16.88;10.30;;;;;;;-2.10;61.93;94031.56;4977076;28;20026;-79
2023/01/30 02:41:10;;;;;;;15.95;9.40;;;;;;;-2.08;61.96;94024.31;4978388;28;20165;-79
2023/01/30 02:43:58;;;;;;;16.75;9.45;;;;;;;-1.97;61.73;94007.84;4976866;28;20465;-78
2023/01/30 02:46:30;;;;;;;14.82;8.32;;;;;;;-1.90;60.77;94006.69;4977185;28;20127;-79
2023/01/30 02:49:03;;;;;;;15.57;9.32;;;;;;;-2.10;61.65;94010.72;4977780;28;20359;-79
2023/01/30 02:51:33;;;;;;;15.10;8.95;;;;;;;-2.02;61.41;94018.97;4976549;28;20125;-78
2023/01/30 02:53:59;;;;;;;16.77;9.65;;;;;;;-1.98;61.14;94004.47;4976638;28;20038;-79
2023/01/30 02:56:25;;;;;;;14.80;8.95;;;;;;;-2.22;61.47;93981.28;4975269;28;20042;-79
2023/01/30 02:59:05;;;;;;;20.08;9.20;;;;;;;-2.09;61.91;94007.88;4978250;28;20407;-79
2023/01/30 03:01:39;;;;;;;15.10;9.05;;;;;;;-2.14;62.39;94022.63;4977006;28;20042;-80
2023/01/30 03:04:26;;;;;;;14.37;8.57;;;;;;;-2.07;61.95;94000.63;4950355;28;20129;-80
2023/01/30 03:07:10;;;;;;;14.88;9.13;;;;;;;-1.84;61.97;94028.44;4939484;28;20072;-79
2023/01/30 03:10:00;;;;;;;18.17;9.38;;;;;;;-1.74;61.63;94018.22;4976801;28;20099;-79
2023/01/30 03:13:03;;;;;;;16.40;9.57;;;;;;;-1.54;60.56;94017.81;4977623;28;20140;-78
2023/01/30 03:15:37;;;;;;;15.73;9.73;;;;;;;-1.41;59.99;94009.72;4957719;28;20478;-77
2023/01/30 03:18:03;;;;;;;13.80;8.50;;;;;;;-1.43;59.61;94009.16;4976741;28;20123;-80
2023/01/30 03:20:30;;;;;;;15.75;9.43;;;;;;;-1.58;59.59;93998.44;4972145;28;20046;-77
2023/01/30 03:22:55;;;;;;;14.27;8.77;;;;;;;-1.93;59.95;93962.06;4979010;28;20038;-78
2023/01/30 03:25:25;;;;;;;14.75;8.82;;;;;;;-1.78;60.65;93993.63;4976271;28;20046;-79
2023/01/30 03:27:52;;;;;;;13.63;9.45;;;;;;;-1.69;60.12;93986.22;4961818;28;20043;-78
2023/01/30 03:30:18;;;;;;;14.18;8.40;;;;;;;-1.64;60.00;93987.13;4976396;28;20695;-79
2023/01/30 03:32:43;;;;;;;16.90;8.73;;;;;;;-1.91;60.53;93975.66;4974765;28;20038;-79
2023/01/30 03:35:09;;;;;;;14.65;8.13;;;;;;;-2.02;60.89;93972.06;4974323;28;20048;-78
2023/01/30 03:37:35;;;;;;;15.90;9.48;;;;;;;-2.15;60.79;93954.09;4951879;28;20161;-78
2023/01/30 03:40:01;;;;;;;17.40;9.30;;;;;;;-1.90;60.78;93974.66;4975575;28;20046;-78
2023/01/30 03:42:26;;;;;;;16.17;10.02;;;;;;;-1.97;60.59;93953.13;4961819;28;20191;-78
2023/01/30 03:44:51;;;;;;;18.70;9.88;;;;;;;-1.93;60.73;93975.09;4978541;28;20073;-79
2023/01/30 03:47:17;;;;;;;16.08;9.13;;;;;;;-2.16;61.29;93970.75;4980395;28;20098;-78
2023/01/30 03:49:42;;;;;;;15.32;9.70;;;;;;;-2.38;61.73;93947.09;4977653;28;20125;-78
2023/01/30 03:52:07;;;;;;;19.63;9.73;;;;;;;-2.35;61.60;93951.06;4979398;28;20034;-80
2023/01/30 03:54:33;;;;;;;16.80;9.18;;;;;;;-2.29;61.38;93945.72;4964480;28;20026;-79
2023/01/30 03:56:58;;;;;;;16.33;9.50;;;;;;;-2.32;61.36;93940.19;4980936;28;20133;-78
2023/01/30 03:59:23;;;;;;;19.77;10.43;;;;;;;-1.99;61.20;93966.38;4961615;28;20041;-78
2023/01/30 04:01:49;;;;;;;20.08;10.38;;;;;;;-2.04;60.54;93953.25;4980745;28;20042;-78
2023/01/30 04:04:14;;;;;;;17.77;9.27;;;;;;;-2.09;61.00;93955.75;4979779;28;20248;-80
2023/01/30 04:06:40;;;;;;;15.95;9.30;;;;;;;-1.84;60.54;93973.69;4978032;28;20476;-78
2023/01/30 04:09:05;;;;;;;18.50;9.68;;;;;;;-1.82;59.91;93969.84;4977651;28;20029;-80
2023/01/30 04:11:30;;;;;;;16.27;9.00;;;;;;;-1.80;59.93;93937.53;4959927;28;20050;-79
2023/01/30 04:13:56;;;;;;;15.25;10.30;;;;;;;-1.80;59.25;93938.31;4977052;28;20033;-80
2023/01/30 04:16:26;;;;;;;17.90;8.73;;;;;;;-1.83;59.88;93963.03;4978521;28;20077;-79
2023/01/30 04:18:51;;;;;;;16.88;10.75;;;;;;;-1.85;59.69;93965.06;4977373;28;20070;-79
2023/01/30 04:21:17;;;;;;;14.20;9.70;;;;;;;-1.94;59.88;93963.06;4979742;28;20120;-79
2023/01/30 04:23:43;;;;;;;18.40;9.80;;;;;;;-2.17;60.01;93911.03;4978442;28;20196;-79
2023/01/30 04:26:10;;;;;;;20.73;11.35;;;;;;;-1.67;59.30;93963.31;4978246;28;20430;-78
2023/01/30 04:28:36;;;;;;;20.15;10.68;;;;;;;-1.56;58.93;93939.81;4977531;28;20069;-80
2023/01/30 04:31:01;;;;;;;21.27;11.30;;;;;;;-1.64;58.99;93966.25;4976711;28;20030;-78
2023/01/30 04:33:27;;;;;;;20.63;10.77;;;;;;;-1.80;59.50;93967.00;4979745;28;20026;-78
2023/01/30 04:35:53;;;;;;;18.27;9.85;;;;;;;-1.78;59.86;93962.34;4975453;28;20403;-80
2023/01/30 04:38:19;;;;;;;18.35;9.13;;;;;;;-1.91;59.45;93939.16;4981339;28;20073;-79
2023/01/30 04:40:52;;;;;;;16.38;8.73;;;;;;;-1.59;59.46;93968.16;4977573;28;20582;-78
2023/01/30 04:43:19;;;;;;;15.45;9.18;;;;;;;-1.69;58.98;93936.69;4980956;28;20044;-78
2023/01/30 04:45:45;;;;;;;18.15;10.43;;;;;;;-1.48;58.93;93962.91;4977078;28;20030;-78
2023/01/30 04:48:11;;;;;;;17.45;10.73;;;;;;;-1.60;58.55;93933.47;4981077;28;20037;-79
2023/01/30 04:50:41;;;;;;;16.85;9.95;;;;;;;-1.60;59.29;93946.50;4978780;28;20034;-78
2023/01/30 04:53:06;;;;;;;18.80;10.63;;;;;;;-1.61;58.91;93928.50;4978252;28;20027;-79
2023/01/30 04:55:31;;;;;;;17.63;10.77;;;;;;;-1.49;58.96;93943.03;4980689;28;20049;-79
2023/01/30 04:57:57;;;;;;;17.40;10.57;;;;;;;-1.61;59.16;93923.28;4962202;28;20035;-79
2023/01/30 05:00:22;;;;;;;20.33;10.07;;;;;;;-1.76;59.01;93923.81;4959670;28;20024;-79
2023/01/30 05:02:48;;;;;;;18.45;11.38;;;;;;;-1.73;59.48;93938.97;4980107;28;20408;-79
2023/01/30 05:05:13;;;;;;;24.33;11.43;;;;;;;-1.66;59.09;93923.19;4978865;28;20506;-78
2023/01/30 05:07:39;;;;;;;20.05;11.80;;;;;;;-1.63;59.65;93933.13;4979642;28;20104;-79
2023/01/30 05:10:05;;;;;;;21.65;11.13;;;;;;;-1.72;58.99;93916.28;4954307;28;20085;-79
2023/01/30 05:12:30;;;;;;;24.05;12.63;;;;;;;-1.72;59.43;93916.28;4979577;28;20108;-78
2023/01/30 05:14:55;;;;;;;18.63;12.13;;;;;;;-1.86;59.42;93907.97;4977912;28;20034;-79
2023/01/30 05:17:21;;;;;;;25.50;14.05;;;;;;;-1.63;59.36;93927.94;4981545;28;20273;-78
2023/01/30 05:19:47;;;;;;;21.10;11.63;;;;;;;-1.81;59.42;93910.69;4978159;28;20154;-78
2023/01/30 05:22:12;;;;;;;21.92;11.90;;;;;;;-1.95;59.27;93925.03;4980679;28;20050;-78
2023/01/30 05:24:37;;;;;;;21.95;12.15;;;;;;;-1.89;59.48;93950.13;4962899;28;20942;-78
2023/01/30 05:27:03;;;;;;;22.70;12.68;;;;;;;-1.90;59.73;93954.56;4980323;28;20018;-79
2023/01/30 05:29:29;;;;;;;23.73;14.35;;;;;;;-1.85;60.14;93943.47;4979421;28;20043;-79
2023/01/30 05:31:54;;;;;;;23.58;13.63;;;;;;;-1.63;59.78;93960.00;4980642;28;20823;-77
2023/01/30 05:34:20;;;;;;;22.30;12.20;;;;;;;-1.55;58.43;93953.63;4978743;28;20042;-79
2023/01/30 05:36:45;;;;;;;23.60;12.50;;;;;;;-1.93;58.93;93908.09;4953113;28;20026;-78
2023/01/30 05:39:10;;;;;;;27.38;13.50;;;;;;;-1.64;59.20;93939.38;4979954;28;20035;-78
2023/01/30 05:41:36;;;;;;;23.52;12.90;;;;;;;-1.59;59.18;93949.91;4980481;28;20729;-79
2023/01/30 05:44:01;;;;;;;22.15;13.38;;;;;;;-1.80;58.81;93927.13;4977933;28;20562;-79
2023/01/30 05:46:27;;;;;;;24.30;13.73;;;;;;;-1.49;58.46;93944.84;4978280;28;20044;-78
2023/01/30 05:48:52;;;;;;;21.88;12.80;;;;;;;-1.66;57.94;93931.00;4978642;28;20326;-80
2023/01/30 05:51:23;;;;;;;24.92;13.73;;;;;;;-1.79;58.37;93924.25;4978034;28;20600;-78
2023/01/30 05:53:49;;;;;;;26.95;13.90;;;;;;;-1.84;59.37;93958.06;4978070;28;20089;-79
2023/01/30 05:56:15;;;;;;;24.73;14.07;;;;;;;-1.88;59.90;93959.53;4978845;28;20068;-77
2023/01/30 05:58:41;;;;;;;22.25;13.75;;;;;;;-2.02;60.15;93932.97;4978977;28;20398;-79
2023/01/30 06:01:09;;;;;;;24.33;15.27;;;;;;;-1.97;60.46;93938.28;4978544;28;20053;-79
2023/01/30 06:03:35;;;;;;;27.63;14.68;;;;;;;-1.71;60.81;93963.00;4977208;28;20073;-79
2023/01/30 06:06:02;;;;;;;32.80;16.58;;;;;;;-1.62;60.37;93961.59;4979334;28;20916;-78
2023/01/30 06:08:28;;;;;;;27.90;16.75;;;;;;;-1.50;60.25;93959.72;4975916;28;20038;-78
2023/01/30 06:10:53;;;;;;;26.00;14.25;;;;;;;-1.73;60.29;93935.56;4962029;28;20073;-78
2023/01/30 06:13:19;;;;;;;26.58;14.75;;;;;;;-1.63;60.19;93960.00;4959418;28;20034;-81
2023/01/30 06:15:44;;;;;;;25.33;14.85;;;;;;;-1.90;60.17;93928.47;4960542;28;20033;-79
2023/01/30 06:18:10;;;;;;;30.92;15.60;;;;;;;-1.59;59.96;93960.34;4979008;28;20378;-78
2023/01/30 06:20:35;;;;;;;22.25;12.57;;;;;;;-1.64;59.26;93931.56;4977399;28;20034;-79
2023/01/30 06:23:00;;;;;;;26.55;13.05;;;;;;;-1.60;59.48;93951.72;4974824;28;20045;-78
2023/01/30 06:25:26;;;;;;;24.27;14.30;;;;;;;-1.87;59.88;93922.03;4973854;28;20434;-79
2023/01/30 06:27:51;;;;;;;26.67;14.38;;;;;;;-1.97;59.71;93890.56;4974585;28;20033;-78
2023/01/30 06:30:17;;;;;;;30.50;15.02;;;;;;;-1.63;59.99;93951.41;4957034;28;20030;-78
2023/01/30 06:32:42;;;;;;;26.67;13.95;;;;;;;-1.90;60.05;93928.47;4977862;28;20054;-79
2023/01/30 06:35:08;;;;;;;26.15;14.40;;;;;;;-2.00;60.33;93904.88;4977680;28;20042;-78
2023/01/30 06:37:40;;;;;;;24.80;13.63;;;;;;;-1.53;59.90;93957.59;5013218;28;20541;-78
2023/01/30 06:40:06;;;;;;;26.20;14.35;;;;;;;-1.76;59.83;93928.22;5000880;28;20041;-79
2023/01/30 06:42:31;;;;;;;27.10;14.60;;;;;;;-1.76;60.38;93954.31;5005490;28;20036;-79
2023/01/30 06:44:56;;;;;;;29.42;15.65;;;;;;;-2.15;61.32;93941.06;5000152;28;20489;-80
2023/01/30 06:47:22;;;;;;;28.85;16.27;;;;;;;-2.26;61.95;93913.22;5005030;28;20068;-77
2023/01/30 06:49:48;;;;;;;31.42;16.75;;;;;;;-2.17;62.11;93906.63;5000711;28;20030;-79
2023/01/30 06:52:13;;;;;;;26.50;15.75;;;;;;;-1.89;61.53;93958.75;5001705;28;20038;-77
2023/01/30 06:54:38;;;;;;;26.20;14.80;;;;;;;-1.84;61.91;93963.25;5001708;28;20046;-79
2023/01/30 06:57:04;;;;;;;25.13;14.43;;;;;;;-2.12;61.54;93909.31;5004615;28;20577;-78
2023/01/30 06:59:29;;;;;;;27.77;15.35;;;;;;;-1.94;62.00;93948.22;5008260;28;20066;-77
2023/01/30 07:01:54;;;;;;;32.20;18.65;;;;;;;-1.66;62.84;93975.34;5001182;28;20088;-80
2023/01/30 07:04:20;;;;;;;43.42;20.85;;;;;;;-1.95;63.54;93928.38;5001224;28;20044;-79
2023/01/30 07:06:45;;;;;;;40.17;21.40;;;;;;;-1.72;63.94;93960.63;4998710;28;20453;-79
2023/01/30 07:09:11;;;;;;;40.85;21.02;;;;;;;-2.01;64.10;93949.41;5001861;28;20088;-78
2023/01/30 07:11:36;;;;;;;38.60;20.25;;;;;;;-1.89;64.98;93971.78;5001305;28;20088;-78
2023/01/30 07:14:01;;;;;;;30.77;18.13;;;;;;;-1.99;64.99;93949.94;5001282;28;20404;-79
2023/01/30 07:16:28;;;;;;;41.70;20.65;;;;;;;-1.81;64.06;93968.03;4998699;28;20045;-79
2023/01/30 07:18:57;;;;;;;35.53;21.00;;;;;;;-1.79;63.59;93949.53;4999461;28;20025;-78
2023/01/30 07:21:23;;;;;;;34.58;19.73;;;;;;;-1.71;63.73;93960.41;5000343;28;20455;-78
2023/01/30 07:23:49;;;;;;;37.92;21.50;;;;;;;-1.69;64.51;93973.97;4997776;28;20042;-79
2023/01/30 07:26:14;;;;;;;32.75;19.90;;;;;;;-1.76;63.44;93954.31;4998732;28;20456;-79
2023/01/30 07:28:39;;;;;;;35.22;19.05;;;;;;;-1.76;63.27;93959.50;4997804;28;20571;-78
2023/01/30 07:31:05;;;;;;;33.97;20.05;;;;;;;-1.59;62.69;93970.75;5000414;28;20038;-78
2023/01/30 07:33:30;;;;;;;38.80;21.38;;;;;;;-1.56;62.57;93965.09;5003977;28;20153;-79
2023/01/30 07:35:56;;;;;;;40.60;22.13;;;;;;;-1.40;62.51;93979.97;4999566;28;20678;-79
2023/01/30 07:38:21;;;;;;;39.00;20.40;;;;;;;-1.40;62.70;93985.19;4997182;28;20040;-80
2023/01/30 07:40:46;;;;;;;35.15;20.45;;;;;;;-1.47;62.45;93977.53;4999629;28;20042;-78
2023/01/30 07:43:13;;;;;;;39.75;19.60;;;;;;;-1.46;61.30;93965.28;4997373;28;20527;-78
2023/01/30 07:45:44;;;;;;;33.30;18.60;;;;;;;-1.35;60.91;93998.31;4998173;28;20030;-78
2023/01/30 07:48:12;;;;;;;30.52;17.73;;;;;;;-1.50;61.22;93972.75;4990518;28;20022;-78
2023/01/30 07:50:37;;;;;;;39.90;20.23;;;;;;;-1.30;61.21;93990.59;4993857;28;20046;-79
2023/01/30 07:53:04;;;;;;;39.83;19.13;;;;;;;-1.48;61.61;93964.72;4990139;28;20118;-78
2023/01/30 07:55:30;;;;;;;36.45;19.15;;;;;;;-1.48;61.35;93964.72;4982316;28;20046;-77
2023/01/30 07:57:55;;;;;;;42.58;18.45;;;;;;;-1.36;61.42;93972.50;4988837;28;21118;-79
2023/01/30 08:00:21;;;;;;;34.28;16.63;;;;;;;-1.58;60.85;93923.59;4987938;28;20061;-78
2023/01/30 08:02:46;;;;;;;33.75;18.55;;;;;;;-1.33;60.60;93958.97;4986438;28;20045;-78
2023/01/30 08:05:11;;;;;;;35.97;19.48;;;;;;;-1.18;60.44;93965.22;4985685;28;20042;-78
2023/01/30 08:07:37;;;;;;;33.20;17.95;;;;;;;-1.15;60.30;93930.81;4983581;28;20649;-79
2023/01/30 08:10:05;;;;;;;37.58;22.13;;;;;;;-0.99;60.06;93948.31;4982705;28;20045;-78
2023/01/30 08:12:31;;;;;;;35.85;19.40;;;;;;;-1.12;60.20;93935.53;4990137;28;20033;-79
2023/01/30 08:14:56;;;;;;;34.45;17.98;;;;;;;-1.24;60.23;93915.78;4985557;28;20492;-78
2023/01/30 08:17:22;;;;;;;32.42;17.60;;;;;;;-1.04;59.84;93958.66;4985204;28;20059;-79
2023/01/30 08:19:47;;;;;;;29.40;17.20;;;;;;;-1.41;59.89;93910.59;4982693;28;20038;-77
2023/01/30 08:22:13;;;;;;;30.40;16.20;;;;;;;-1.09;59.72;93949.97;4985495;28;20037;-79
2023/01/30 08:24:38;;;;;;;26.50;15.93;;;;;;;-1.24;59.57;93929.63;4987700;28;20684;-79
2023/01/30 08:27:04;;;;;;;32.80;18.65;;;;;;;-1.19;59.89;93919.28;4985035;28;20014;-78
2023/01/30 08:29:29;;;;;;;28.35;16.67;;;;;;;-0.99;59.44;93945.69;4985672;28;20438;-78
2023/01/30 08:31:58;;;;;;;26.73;15.23;;;;;;;-1.19;58.88;93905.44;4984395;28;20511;-78
2023/01/30 08:34:24;;;;;;;26.80;14.27;;;;;;;-0.97;57.39;93937.59;4983303;28;20524;-78
2023/01/30 08:36:50;;;;;;;34.58;22.20;;;;;;;-1.05;57.11;93925.75;4981944;28;20514;-76
2023/01/30 08:39:15;;;;;;;33.45;17.70;;;;;;;-0.97;57.15;93932.38;4987838;28;20045;-79
2023/01/30 08:41:42;;;;;;;36.40;19.70;;;;;;;-1.10;56.86;93909.22;4984246;28;21459;-78
2023/01/30 08:44:08;;;;;;;25.58;14.70;;;;;;;-0.98;57.40;93931.63;4991903;28;20559;-78
2023/01/30 08:46:34;;;;;;;28.90;15.95;;;;;;;-0.91;57.85;93930.63;4984945;28;20042;-78
2023/01/30 08:48:59;;;;;;;29.50;15.70;;;;;;;-0.85;58.28;93929.69;4985233;28;20042;-77
2023/01/30 08:51:25;;;;;;;32.63;18.65;;;;;;;-0.98;57.56;93897.69;4984856;28;20595;-77
2023/01/30 08:53:50;;;;;;;24.08;14.48;;;;;;;-0.90;57.49;93919.16;4983944;28;20144;-77
2023/01/30 08:56:16;;;;;;;33.83;21.88;;;;;;;-0.96;57.63;93926.94;4984114;28;20520;-78
2023/01/30 08:58:42;;;;;;;26.33;15.27;;;;;;;-1.01;57.56;93921.63;4985508;28;20073;-78
2023/01/30 09:01:08;;;;;;;26.67;16.23;;;;;;;-1.01;56.44;93898.13;4986139;28;20053;-77
2023/01/30 09:03:34;;;;;;;30.70;16.10;;;;;;;-0.82;56.16;93918.75;4986902;28;20121;-78
2023/01/30 09:05:59;;;;;;;26.58;15.30;;;;;;;-0.91;56.11;93899.31;4982942;28;20061;-78
2023/01/30 09:08:25;;;;;;;20.55;12.07;;;;;;;-0.79;55.54;93902.63;4983387;28;20142;-77
2023/01/30 09:10:50;;;;;;;22.42;14.23;;;;;;;-0.79;55.35;93892.97;4982041;28;20608;-78
2023/01/30 09:13:16;;;;;;;20.35;12.52;;;;;;;-0.97;55.74;93890.59;4980166;28;20030;-78
2023/01/30 09:15:42;;;;;;;24.02;12.48;;;;;;;-0.87;55.12;93871.72;4982769;28;20026;-78
2023/01/30 09:18:07;;;;;;;24.10;14.50;;;;;;;-0.68;55.23;93873.78;4983091;28;20030;-76
2023/01/30 09:20:33;;;;;;;27.02;16.63;;;;;;;-0.63;55.37;93875.69;4984109;28;20062;-78
2023/01/30 09:23:00;;;;;;;19.48;12.82;;;;;;;-0.61;54.69;93871.78;4984325;28;20339;-79
2023/01/30 09:25:26;;;;;;;22.95;11.80;;;;;;;-0.67;54.39;93877.19;4981652;28;20029;-78
2023/01/30 09:27:51;;;;;;;22.38;13.40;;;;;;;-0.91;55.12;93867.97;4987872;28;20607;-79
2023/01/30 09:30:17;;;;;;;19.63;11.75;;;;;;;-0.73;54.82;93881.56;4986356;28;20034;-78
2023/01/30 09:32:43;;;;;;;22.63;15.20;;;;;;;-0.82;55.23;93866.53;4994727;28;20066;-78
2023/01/30 09:35:09;;;;;;;22.15;13.13;;;;;;;-0.63;55.07;93878.31;4983352;28;20120;-78
2023/01/30 09:37:34;;;;;;;22.60;13.48;;;;;;;-0.63;55.17;93896.59;4983355;28;20421;-78
2023/01/30 09:39:59;;;;;;;25.30;13.98;;;;;;;-1.02;54.75;93851.41;4992400;28;20619;-78
2023/01/30 09:42:52;;;;;;;20.20;12.40;;;;;;;-0.69;55.29;93897.53;4981897;28;20030;-78
2023/01/30 09:45:46;;;;;;;22.25;14.90;;;;;;;-0.81;54.51;93894.22;4983453;28;21109;-78
2023/01/30 09:48:19;;;;;;;21.98;11.65;;;;;;;-0.84;55.29;93873.84;4973203;28;21660;-77
2023/01/30 09:51:26;;;;;;;24.65;13.20;;;;;;;-0.67;55.09;93880.59;4977883;28;20038;-78
2023/01/30 09:54:03;;;;;;;19.77;12.25;;;;;;;-0.62;54.74;93875.44;4977550;28;20099;-78
2023/01/30 09:56:28;;;;;;;26.05;14.73;;;;;;;-0.78;54.00;93836.31;4979669;28;20045;-77
2023/01/30 09:58:57;;;;;;;24.88;15.23;;;;;;;-0.76;54.34;93840.25;4986216;28;20046;-78
2023/01/30 10:01:33;;;;;;;19.35;12.63;;;;;;;-0.67;54.55;93869.34;4983414;28;20042;-78
2023/01/30 10:04:01;;;;;;;21.98;13.13;;;;;;;-0.87;54.79;93874.31;4984238;28;20040;-78
2023/01/30 10:06:27;;;;;;;19.55;12.35;;;;;;;-0.86;55.33;93840.13;4985870;28;20049;-78
2023/01/30 10:09:05;;;;;;;39.30;19.38;;;;;;;-0.86;55.97;93860.22;4987068;28;20054;-78
2023/01/30 10:11:59;;;;;;;24.05;13.25;;;;;;;-0.89;56.61;93852.88;4982516;28;20050;-80
2023/01/30 10:14:43;;;;;;;25.58;14.73;;;;;;;-0.70;57.73;93848.94;4982403;28;20061;-78
2023/01/30 10:17:33;;;;;;;29.33;15.90;;;;;;;-0.66;58.09;93834.38;4989470;28;20520;-78
2023/01/30 10:20:31;;;;;;;30.00;15.82;;;;;;;-0.72;58.30;93830.91;4982489;28;20593;-76
2023/01/30 10:23:01;;;;;;;32.08;16.90;;;;;;;-0.62;59.00;93825.00;4981420;28;20050;-78
2023/01/30 10:25:47;;;;;;;30.80;18.70;;;;;;;-0.67;58.68;93828.34;4982560;28;20606;-77
2023/01/30 10:28:28;;;;;;;24.02;14.07;;;;;;;-0.83;59.23;93800.50;4983617;28;20097;-78
2023/01/30 10:31:04;;;;;;;24.83;14.27;;;;;;;-0.93;59.19;93825.66;4975889;28;20704;-79
2023/01/30 10:33:34;;;;;;;29.48;16.27;;;;;;;-1.25;60.14;93810.63;4985777;28;20265;-78
2023/01/30 10:36:10;;;;;;;31.38;17.45;;;;;;;-1.26;60.20;93803.81;4983857;28;20417;-78
2023/01/30 10:38:48;;;;;;;29.02;15.70;;;;;;;-1.35;59.81;93771.34;4982686;28;20045;-77
2023/01/30 10:41:19;;;;;;;40.03;22.33;;;;;;;-1.15;59.90;93795.09;4985298;28;20042;-79
2023/01/30 10:43:53;;;;;;;31.23;17.70;;;;;;;-0.91;60.09;93792.25;4977903;28;20547;-76
2023/01/30 10:46:33;;;;;;;30.30;17.67;;;;;;;-1.20;59.28;93739.44;4982043;28;20048;-77
2023/01/30 10:49:10;;;;;;;29.90;17.50;;;;;;;-1.06;59.39;93778.00;4980869;28;20401;-77
2023/01/30 10:52:03;;;;;;;29.95;16.90;;;;;;;-0.90;58.95;93752.06;4980480;28;20141;-78
2023/01/30 10:54:36;;;;;;;34.38;17.17;;;;;;;-1.12;59.52;93739.78;4980426;28;20038;-78
2023/01/30 10:57:06;;;;;;;35.03;18.02;;;;;;;-0.78;59.59;93768.41;4983290;28;20038;-77
2023/01/30 11:00:04;;;;;;;26.63;15.27;;;;;;;-1.02;58.62;93732.09;4979258;28;20144;-79
2023/01/30 11:03:08;;;;;;;26.35;15.73;;;;;;;-1.00;59.66;93750.94;4982785;28;20042;-79
2023/01/30 11:05:51;;;;;;;29.27;15.77;;;;;;;-1.23;60.13;93740.72;4982275;28;20792;-78
2023/01/30 11:08:28;;;;;;;38.72;19.83;;;;;;;-1.44;60.59;93682.28;4990087;28;20519;-78
2023/01/30 11:10:55;;;;;;;24.88;15.25;;;;;;;-1.37;59.52;93702.97;4983899;28;20519;-78
2023/01/30 11:13:26;;;;;;;29.60;15.80;;;;;;;-1.09;60.33;93720.28;4980797;28;20077;-76
2023/01/30 11:15:53;;;;;;;34.38;17.63;;;;;;;-1.43;61.15;93698.72;4980084;28;20092;-77
2023/01/30 11:18:20;;;;;;;34.22;17.95;;;;;;;-1.26;60.89;93709.09;4982719;28;20026;-78
2023/01/30 11:20:59;;;;;;;31.20;16.65;;;;;;;-1.23;60.66;93698.97;4982387;28;20042;-77
2023/01/30 11:23:37;;;;;;;29.90;16.92;;;;;;;-1.35;60.73;93695.69;4981428;28;20064;-77
2023/01/30 11:26:03;;;;;;;31.83;18.48;;;;;;;-1.31;59.97;93659.47;4985226;28;20405;-77
2023/01/30 11:28:41;;;;;;;36.55;19.45;;;;;;;-1.30;60.47;93680.09;4983780;28;20045;-77
2023/01/30 11:31:20;;;;;;;34.55;19.88;;;;;;;-1.41;60.41;93644.50;4984036;28;20057;-78
2023/01/30 11:33:59;;;;;;;34.70;18.50;;;;;;;-1.37;60.67;93656.00;4985816;28;20698;-77
2023/01/30 11:36:27;;;;;;;26.83;15.32;;;;;;;-1.30;59.22;93640.94;4999548;28;20046;-77